Time;durP1;ratioP1;P1;durP2;ratioP2;P2;SDS_P1;SDS_P2;PMS_P1;PMS_P2;Temp;Humidity;BMP_temperature;BMP_pressure;BME280_temperature;BME280_humidity;BME280_pressure;Samples;Min_cycle;Max_cycle;Signal;HPM_P1;HPM_P2
2023/04/15 00:01:18;;;;;;;;;;;7.40;99.90;;;;;;5124386;28;19951;-69
2023/04/15 00:03:45;;;;;;;;;;;7.40;99.90;;;;;;5124679;28;19919;-69
2023/04/15 00:06:12;;;;;;;;;;;7.40;99.90;;;;;;5124174;28;19962;-67
2023/04/15 00:08:40;;;;;;;;;;;7.40;99.90;;;;;;5124522;28;19919;-70
2023/04/15 00:11:06;;;;;;;;;;;7.30;99.90;;;;;;5124580;28;19926;-69
2023/04/15 00:13:33;;;;;;;;;;;7.30;99.90;;;;;;5124460;28;19958;-69
2023/04/15 00:16:00;;;;;;;;;;;7.30;99.90;;;;;;5124023;28;19923;-69
2023/04/15 00:18:28;;;;;;;;;;;7.30;99.90;;;;;;5124137;28;19919;-69
2023/04/15 00:20:54;;;;;;;;;;;7.30;99.90;;;;;;5124447;28;19983;-69
2023/04/15 00:23:21;;;;;;;;;;;7.30;99.90;;;;;;5124401;28;19950;-71
2023/04/15 00:25:49;;;;;;;;;;;7.30;99.90;;;;;;5123485;28;19920;-69
2023/04/15 00:28:16;;;;;;;;;;;7.30;99.90;;;;;;5123819;28;19956;-69
2023/04/15 00:30:43;;;;;;;;;;;7.20;99.90;;;;;;5124070;28;20250;-69
2023/04/15 00:33:09;;;;;;;;;;;7.10;99.90;;;;;;5124070;28;19955;-69
2023/04/15 00:35:36;;;;;;;;;;;7.10;99.90;;;;;;5121338;28;19983;-69
2023/04/15 00:38:06;;;;;;;;;;;7.00;99.90;;;;;;5123086;28;20293;-69
2023/04/15 00:40:32;;;;;;;;;;;6.90;99.90;;;;;;5124315;28;20160;-70
2023/04/15 00:43:00;;;;;;;;;;;6.90;99.90;;;;;;5124360;28;20270;-69
2023/04/15 00:45:27;;;;;;;;;;;6.90;99.90;;;;;;5124280;28;19982;-69
2023/04/15 00:47:54;;;;;;;;;;;6.80;99.90;;;;;;5123470;28;19962;-69
2023/04/15 00:50:21;;;;;;;;;;;6.80;99.90;;;;;;5124543;28;19920;-69
2023/04/15 00:52:47;;;;;;;;;;;6.80;99.90;;;;;;5123800;28;19959;-69
2023/04/15 00:55:14;;;;;;;;;;;6.80;99.90;;;;;;5121346;28;19962;-69
2023/04/15 00:57:41;;;;;;;;;;;6.80;99.90;;;;;;5123346;28;19979;-68
2023/04/15 01:00:10;;;;;;;;;;;6.70;99.90;;;;;;5120177;22;19979;-92
2023/04/15 01:02:37;;;;;;;;;;;6.70;99.90;;;;;;5105181;28;20226;-92
2023/04/15 01:05:04;;;;;;;;;;;6.70;99.90;;;;;;5104416;28;19920;-91
2023/04/15 01:07:31;;;;;;;;;;;6.70;99.90;;;;;;5103942;28;19955;-92
2023/04/15 01:09:58;;;;;;;;;;;6.70;99.90;;;;;;5090390;28;19920;-91
2023/04/15 01:12:26;;;;;;;;;;;6.60;99.90;;;;;;5082983;28;19983;-92
2023/04/15 01:14:53;;;;;;;;;;;6.60;99.90;;;;;;5121384;22;19951;-70
2023/04/15 01:17:21;;;;;;;;;;;6.50;99.90;;;;;;5123497;28;19920;-71
2023/04/15 01:19:47;;;;;;;;;;;6.50;99.90;;;;;;5124098;28;19962;-70
2023/04/15 01:22:14;;;;;;;;;;;6.50;99.90;;;;;;5123853;28;19919;-70
2023/04/15 01:24:42;;;;;;;;;;;6.50;99.90;;;;;;5124045;28;19982;-70
2023/04/15 01:27:10;;;;;;;;;;;6.40;99.90;;;;;;5123546;28;20147;-70
2023/04/15 01:29:38;;;;;;;;;;;6.50;99.90;;;;;;5123499;28;19983;-70
2023/04/15 01:32:05;;;;;;;;;;;6.50;99.90;;;;;;5123663;28;20143;-70
2023/04/15 01:34:32;;;;;;;;;;;6.50;99.90;;;;;;5123772;28;19991;-70
2023/04/15 01:36:58;;;;;;;;;;;6.50;99.90;;;;;;5123038;28;20070;-70
2023/04/15 01:39:25;;;;;;;;;;;6.50;99.90;;;;;;5126141;28;20258;-70
2023/04/15 01:41:52;;;;;;;;;;;6.60;99.90;;;;;;5127079;28;20376;-70
2023/04/15 01:44:19;;;;;;;;;;;6.50;99.90;;;;;;5127640;28;19983;-69
2023/04/15 01:46:47;;;;;;;;;;;6.50;99.90;;;;;;5118470;28;19942;-70
2023/04/15 01:49:13;;;;;;;;;;;6.50;99.90;;;;;;5127661;28;19920;-70
2023/04/15 01:51:40;;;;;;;;;;;6.50;99.90;;;;;;5127631;28;19983;-69
2023/04/15 01:54:07;;;;;;;;;;;6.50;99.90;;;;;;5127529;28;19979;-70
2023/04/15 01:56:33;;;;;;;;;;;6.50;99.90;;;;;;5126560;28;19987;-70
2023/04/15 01:59:00;;;;;;;;;;;6.50;99.90;;;;;;5127487;28;19955;-70
2023/04/15 02:01:28;;;;;;;;;;;6.50;99.90;;;;;;5118826;28;19920;-70
2023/04/15 02:03:55;;;;;;;;;;;6.50;99.90;;;;;;5106823;28;19926;-70
2023/04/15 02:06:22;;;;;;;;;;;6.50;99.90;;;;;;5105995;28;19974;-70
2023/04/15 02:08:49;;;;;;;;;;;6.60;99.90;;;;;;5106590;28;20286;-69
2023/04/15 02:11:15;;;;;;;;;;;6.60;99.90;;;;;;5106686;28;19920;-70
2023/04/15 02:13:42;;;;;;;;;;;6.50;99.90;;;;;;5106689;28;19963;-70
2023/04/15 02:16:15;;;;;;;;;;;6.50;99.90;;;;;;5124018;27;19926;-70
2023/04/15 02:18:43;;;;;;;;;;;6.60;99.90;;;;;;5127222;28;19920;-69
2023/04/15 02:21:10;;;;;;;;;;;6.50;99.90;;;;;;5126990;28;19930;-70
2023/04/15 02:23:36;;;;;;;;;;;6.50;99.90;;;;;;5126977;28;19926;-70
2023/04/15 02:26:03;;;;;;;;;;;6.50;99.90;;;;;;5126502;28;19987;-70
2023/04/15 02:28:30;;;;;;;;;;;6.50;99.90;;;;;;5126667;28;19955;-70
2023/04/15 02:30:58;;;;;;;;;;;6.40;99.90;;;;;;5118089;28;20194;-70
2023/04/15 02:33:25;;;;;;;;;;;6.40;99.90;;;;;;5126759;28;19927;-70
2023/04/15 02:35:53;;;;;;;;;;;6.50;99.90;;;;;;5126270;28;19920;-69
2023/04/15 02:38:19;;;;;;;;;;;6.40;99.90;;;;;;5126404;28;19926;-71
2023/04/15 02:40:48;;;;;;;;;;;6.40;99.90;;;;;;5126625;28;19982;-70
2023/04/15 02:43:15;;;;;;;;;;;6.30;99.90;;;;;;5126520;28;19920;-70
2023/04/15 02:45:43;;;;;;;;;;;6.30;99.90;;;;;;5126433;27;19965;-70
2023/04/15 02:48:09;;;;;;;;;;;6.30;99.90;;;;;;5125521;28;20283;-70
2023/04/15 02:50:38;;;;;;;;;;;6.30;99.90;;;;;;5126183;28;19919;-70
2023/04/15 02:53:06;;;;;;;;;;;6.20;99.90;;;;;;5126416;28;19926;-70
2023/04/15 02:55:33;;;;;;;;;;;6.20;99.90;;;;;;5126262;28;20029;-70
2023/04/15 02:58:00;;;;;;;;;;;6.10;99.90;;;;;;5125924;28;20080;-70
2023/04/15 03:00:27;;;;;;;;;;;6.10;99.90;;;;;;5126168;28;19982;-69
2023/04/15 03:02:57;;;;;;;;;;;6.20;99.90;;;;;;5117719;28;19926;-69
2023/04/15 03:05:24;;;;;;;;;;;6.10;99.90;;;;;;5125835;28;19986;-70
2023/04/15 03:07:51;;;;;;;;;;;6.20;99.90;;;;;;5124797;28;19926;-70
2023/04/15 03:10:19;;;;;;;;;;;6.20;99.90;;;;;;5126040;28;19982;-70
2023/04/15 03:12:45;;;;;;;;;;;6.10;99.90;;;;;;5126076;28;19926;-70
2023/04/15 03:15:12;;;;;;;;;;;6.10;99.90;;;;;;5125623;28;19951;-70
2023/04/15 03:17:39;;;;;;;;;;;6.10;99.90;;;;;;5125602;28;19983;-70
2023/04/15 03:20:06;;;;;;;;;;;6.10;99.90;;;;;;5123238;28;19923;-70
2023/04/15 03:22:33;;;;;;;;;;;6.10;99.90;;;;;;5125577;28;20237;-70
2023/04/15 03:24:59;;;;;;;;;;;6.10;99.90;;;;;;5125723;28;19974;-70
2023/04/15 03:27:27;;;;;;;;;;;6.10;99.90;;;;;;5124978;28;19961;-70
2023/04/15 03:29:55;;;;;;;;;;;6.10;99.90;;;;;;5125482;28;19920;-70
2023/04/15 03:32:22;;;;;;;;;;;6.10;99.90;;;;;;5125563;28;19927;-70
2023/04/15 03:34:48;;;;;;;;;;;6.10;99.90;;;;;;5125471;28;20257;-70
2023/04/15 03:37:15;;;;;;;;;;;6.10;99.90;;;;;;5124671;28;19983;-69
2023/04/15 03:39:42;;;;;;;;;;;6.10;99.90;;;;;;5125520;28;19955;-70
2023/04/15 03:42:08;;;;;;;;;;;6.10;99.90;;;;;;5125206;28;20165;-70
2023/04/15 03:44:37;;;;;;;;;;;6.00;99.90;;;;;;5125251;28;20003;-70
2023/04/15 03:47:03;;;;;;;;;;;6.10;99.90;;;;;;5124428;28;19970;-70
2023/04/15 03:49:30;;;;;;;;;;;6.00;99.90;;;;;;5125174;28;19926;-70
2023/04/15 03:51:57;;;;;;;;;;;6.10;99.90;;;;;;5125296;28;20152;-70
2023/04/15 03:54:23;;;;;;;;;;;6.10;99.90;;;;;;5125220;28;19926;-70
2023/04/15 03:56:50;;;;;;;;;;;6.00;99.90;;;;;;5124799;28;20115;-70
2023/04/15 03:59:17;;;;;;;;;;;6.00;99.90;;;;;;5124991;28;19955;-70
2023/04/15 04:01:45;;;;;;;;;;;5.90;99.90;;;;;;5124187;28;19962;-70
2023/04/15 04:04:11;;;;;;;;;;;5.90;99.90;;;;;;5125068;28;19920;-70
2023/04/15 04:06:38;;;;;;;;;;;5.90;99.90;;;;;;5123945;28;20225;-71
2023/04/15 04:09:04;;;;;;;;;;;5.90;99.90;;;;;;5124640;28;19955;-70
2023/04/15 04:11:31;;;;;;;;;;;5.90;99.90;;;;;;5123978;28;19951;-70
2023/04/15 04:13:58;;;;;;;;;;;5.90;99.90;;;;;;5111714;28;20265;-70
2023/04/15 04:16:25;;;;;;;;;;;5.90;99.90;;;;;;5120068;28;19920;-70
2023/04/15 04:18:53;;;;;;;;;;;5.90;99.90;;;;;;5124340;28;19920;-69
2023/04/15 04:21:19;;;;;;;;;;;5.80;99.90;;;;;;5124712;28;19991;-70
2023/04/15 04:23:46;;;;;;;;;;;5.80;99.90;;;;;;5124733;28;19996;-70
2023/04/15 04:26:19;;;;;;;;;;;5.90;99.90;;;;;;5121071;28;19920;-70
2023/04/15 04:31:30;;;;;;;;;;;5.90;99.90;;;;;;5109214;28;19957;-70
2023/04/15 04:33:58;;;;;;;;;;;5.90;99.90;;;;;;5124700;28;19991;-71
2023/04/15 04:36:25;;;;;;;;;;;5.80;99.90;;;;;;5123765;28;19920;-70
2023/04/15 04:38:52;;;;;;;;;;;5.80;99.90;;;;;;5124503;28;20149;-70
2023/04/15 04:41:18;;;;;;;;;;;5.80;99.90;;;;;;5124429;28;20111;-71
2023/04/15 04:43:45;;;;;;;;;;;5.80;99.90;;;;;;5124456;28;19920;-70
2023/04/15 04:46:12;;;;;;;;;;;5.80;99.90;;;;;;5123736;28;19995;-69
2023/04/15 04:48:38;;;;;;;;;;;5.90;99.90;;;;;;5123922;28;20227;-70
2023/04/15 04:51:07;;;;;;;;;;;5.80;99.90;;;;;;5124291;28;20146;-70
2023/04/15 04:53:33;;;;;;;;;;;5.80;99.90;;;;;;5124432;28;19919;-70
2023/04/15 04:56:00;;;;;;;;;;;5.80;99.90;;;;;;5124103;28;20283;-70
2023/04/15 04:58:27;;;;;;;;;;;5.80;99.90;;;;;;5124414;28;19919;-70
2023/04/15 05:00:53;;;;;;;;;;;5.90;99.90;;;;;;5134228;28;19920;-70
2023/04/15 05:03:20;;;;;;;;;;;5.80;99.90;;;;;;5124249;28;19951;-70
2023/04/15 05:05:48;;;;;;;;;;;5.90;99.90;;;;;;5123570;28;20230;-70
2023/04/15 05:08:16;;;;;;;;;;;5.80;99.90;;;;;;5124011;28;19920;-70
2023/04/15 05:10:42;;;;;;;;;;;5.80;99.90;;;;;;5124062;28;19955;-70
2023/04/15 05:13:09;;;;;;;;;;;5.80;99.90;;;;;;5126578;28;19951;-70
2023/04/15 05:15:38;;;;;;;;;;;5.80;99.90;;;;;;5129481;27;19920;-70
2023/04/15 05:18:05;;;;;;;;;;;5.80;99.90;;;;;;5127558;28;19920;-70
2023/04/15 05:20:32;;;;;;;;;;;5.70;99.90;;;;;;5127763;28;20207;-70
2023/04/15 05:22:58;;;;;;;;;;;5.80;99.90;;;;;;5107033;28;19979;-71
2023/04/15 05:25:27;;;;;;;;;;;5.70;99.90;;;;;;5107162;28;19962;-69
2023/04/15 05:27:53;;;;;;;;;;;5.70;99.90;;;;;;5106794;28;19926;-70
2023/04/15 05:30:21;;;;;;;;;;;5.80;99.90;;;;;;5116542;28;19983;-70
2023/04/15 05:32:47;;;;;;;;;;;5.70;99.90;;;;;;5127670;28;19920;-70
2023/04/15 05:35:14;;;;;;;;;;;5.70;99.90;;;;;;5127783;28;19924;-70
2023/04/15 05:37:41;;;;;;;;;;;5.70;99.90;;;;;;5126012;28;19982;-70
2023/04/15 05:40:09;;;;;;;;;;;5.70;99.90;;;;;;5127859;28;19926;-70
2023/04/15 05:42:37;;;;;;;;;;;5.70;99.90;;;;;;5127497;28;19920;-70
2023/04/15 05:45:04;;;;;;;;;;;5.80;99.90;;;;;;5128922;27;20241;-68
2023/04/15 05:47:31;;;;;;;;;;;5.80;99.90;;;;;;5126249;28;20260;-69
2023/04/15 05:49:58;;;;;;;;;;;5.80;99.90;;;;;;5127267;28;19920;-70
2023/04/15 05:52:25;;;;;;;;;;;5.80;99.90;;;;;;5127233;28;19924;-69
2023/04/15 05:54:51;;;;;;;;;;;5.80;99.90;;;;;;5127273;28;20216;-69
2023/04/15 05:57:18;;;;;;;;;;;5.80;99.90;;;;;;5126128;28;19988;-69
2023/04/15 05:59:46;;;;;;;;;;;5.90;99.90;;;;;;5128868;27;19955;-72
2023/04/15 06:02:13;;;;;;;;;;;5.90;99.90;;;;;;5125016;28;19926;-69
2023/04/15 06:04:39;;;;;;;;;;;5.90;99.90;;;;;;5127280;28;19962;-69
2023/04/15 06:07:06;;;;;;;;;;;6.00;99.90;;;;;;5120293;28;19975;-69
2023/04/15 06:09:32;;;;;;;;;;;6.00;99.90;;;;;;5114108;28;19962;-69
2023/04/15 06:12:00;;;;;;;;;;;6.00;99.90;;;;;;5122588;28;19962;-69
2023/04/15 06:14:27;;;;;;;;;;;6.10;99.90;;;;;;5126626;28;19951;-69
2023/04/15 06:16:55;;;;;;;;;;;6.00;99.90;;;;;;5118151;28;20100;-69
2023/04/15 06:19:21;;;;;;;;;;;6.10;99.90;;;;;;5126342;28;19926;-69
2023/04/15 06:21:48;;;;;;;;;;;6.20;99.90;;;;;;5126846;28;19987;-69
2023/04/15 06:24:15;;;;;;;;;;;6.20;99.90;;;;;;5125625;28;20203;-70
2023/04/15 06:26:41;;;;;;;;;;;6.20;99.90;;;;;;5125628;28;19920;-69
2023/04/15 06:29:08;;;;;;;;;;;6.30;99.90;;;;;;5126809;28;19983;-69
2023/04/15 06:31:35;;;;;;;;;;;6.30;99.90;;;;;;5125954;28;20163;-69
2023/04/15 06:34:02;;;;;;;;;;;6.30;99.90;;;;;;5126402;28;20207;-69
2023/04/15 06:36:29;;;;;;;;;;;6.40;99.90;;;;;;5125947;28;19926;-69
2023/04/15 06:38:56;;;;;;;;;;;6.40;99.90;;;;;;5126504;28;19962;-69
2023/04/15 06:41:23;;;;;;;;;;;6.50;99.90;;;;;;5126179;28;19926;-69
2023/04/15 06:43:49;;;;;;;;;;;6.60;99.90;;;;;;5126444;28;19986;-69
2023/04/15 06:46:16;;;;;;;;;;;6.60;99.90;;;;;;5125266;28;19964;-70
2023/04/15 06:48:43;;;;;;;;;;;6.70;99.90;;;;;;5126341;28;20011;-69
2023/04/15 06:51:11;;;;;;;;;;;6.80;99.90;;;;;;5126352;28;19927;-70
2023/04/15 06:53:39;;;;;;;;;;;6.90;99.90;;;;;;5126100;28;19926;-69
2023/04/15 06:56:07;;;;;;;;;;;7.00;99.90;;;;;;5125932;28;19927;-69
2023/04/15 06:58:34;;;;;;;;;;;7.10;99.90;;;;;;5125743;28;19920;-69
2023/04/15 07:01:00;;;;;;;;;;;7.20;99.90;;;;;;5125823;28;19919;-69
2023/04/15 07:03:27;;;;;;;;;;;7.30;99.90;;;;;;5126110;28;19983;-70
2023/04/15 07:05:54;;;;;;;;;;;7.40;99.90;;;;;;5126047;28;19920;-70
2023/04/15 07:08:22;;;;;;;;;;;7.50;99.90;;;;;;5125696;28;19974;-70
2023/04/15 07:10:49;;;;;;;;;;;7.60;99.90;;;;;;5125881;28;20203;-69
2023/04/15 07:13:17;;;;;;;;;;;7.70;99.90;;;;;;5122810;28;19962;-72
2023/04/15 07:15:44;;;;;;;;;;;7.80;99.90;;;;;;5116864;28;19927;-71
2023/04/15 07:18:11;;;;;;;;;;;7.90;99.90;;;;;;5125259;28;19920;-71
2023/04/15 07:20:38;;;;;;;;;;;7.90;99.90;;;;;;5125851;28;19958;-71
2023/04/15 07:23:05;;;;;;;;;;;8.00;99.90;;;;;;5125962;28;19926;-71
2023/04/15 07:25:33;;;;;;;;;;;8.10;99.90;;;;;;5124872;28;19995;-71
2023/04/15 07:27:59;;;;;;;;;;;8.20;99.90;;;;;;5110862;28;19927;-71
2023/04/15 07:30:26;;;;;;;;;;;8.30;99.90;;;;;;5123527;27;19919;-71
2023/04/15 07:32:53;;;;;;;;;;;8.40;99.90;;;;;;5125496;28;19975;-77
2023/04/15 07:35:20;;;;;;;;;;;8.50;99.90;;;;;;5125139;28;19926;-72
2023/04/15 07:37:47;;;;;;;;;;;8.50;99.90;;;;;;5104342;28;19920;-72
2023/04/15 07:40:15;;;;;;;;;;;8.60;99.90;;;;;;5125198;28;19979;-71
2023/04/15 07:42:43;;;;;;;;;;;8.70;99.90;;;;;;5125457;28;19955;-70
2023/04/15 07:45:11;;;;;;;;;;;8.70;99.90;;;;;;5120819;28;20233;-71
2023/04/15 07:47:39;;;;;;;;;;;8.80;99.90;;;;;;5124291;28;19920;-71
2023/04/15 07:50:07;;;;;;;;;;;8.90;99.90;;;;;;5122914;28;20253;-72
2023/04/15 07:52:38;;;;;;;;;;;8.90;99.90;;;;;;5121673;28;19920;-72
2023/04/15 07:55:05;;;;;;;;;;;8.90;99.90;;;;;;5111910;28;19919;-72
2023/04/15 07:57:31;;;;;;;;;;;8.90;99.90;;;;;;5124485;28;19982;-72
2023/04/15 08:00:00;;;;;;;;;;;8.90;99.90;;;;;;5122514;28;19951;-72
2023/04/15 08:02:26;;;;;;;;;;;8.90;99.90;;;;;;5124857;28;19926;-72
2023/04/15 08:04:53;;;;;;;;;;;8.90;99.90;;;;;;5124844;28;19994;-72
2023/04/15 08:07:20;;;;;;;;;;;8.90;99.90;;;;;;5123643;28;19951;-72
2023/04/15 08:09:47;;;;;;;;;;;9.00;99.90;;;;;;5124836;28;20107;-72
2023/04/15 08:12:13;;;;;;;;;;;9.00;99.90;;;;;;5124900;28;19920;-72
2023/04/15 08:14:40;;;;;;;;;;;9.10;99.90;;;;;;5124013;28;19919;-72
2023/04/15 08:17:08;;;;;;;;;;;9.10;99.90;;;;;;5124110;28;19927;-71
2023/04/15 08:19:35;;;;;;;;;;;9.20;99.90;;;;;;5124670;28;19927;-72
2023/04/15 08:22:02;;;;;;;;;;;9.20;99.90;;;;;;5124645;28;19920;-70
2023/04/15 08:24:29;;;;;;;;;;;9.20;99.90;;;;;;5124572;28;19961;-70
2023/04/15 08:26:56;;;;;;;;;;;9.30;99.90;;;;;;5123900;28;19923;-72
2023/04/15 08:29:23;;;;;;;;;;;9.40;99.90;;;;;;5124728;28;19919;-72
2023/04/15 08:31:49;;;;;;;;;;;9.40;99.90;;;;;;5123982;28;19926;-71
2023/04/15 08:34:17;;;;;;;;;;;9.40;99.90;;;;;;5124692;28;19986;-72
2023/04/15 08:36:44;;;;;;;;;;;9.40;99.90;;;;;;5124211;28;19927;-72
2023/04/15 08:39:10;;;;;;;;;;;9.40;99.90;;;;;;5124450;28;19973;-72
2023/04/15 08:41:40;;;;;;;;;;;9.40;99.90;;;;;;5124360;28;20169;-70
2023/04/15 08:44:07;;;;;;;;;;;9.50;99.90;;;;;;5124060;28;20211;-70
2023/04/15 08:46:33;;;;;;;;;;;9.50;99.90;;;;;;5123419;28;19927;-70
2023/04/15 08:49:03;;;;;;;;;;;9.50;99.90;;;;;;5123885;28;19923;-70
2023/04/15 08:51:31;;;;;;;;;;;9.50;99.90;;;;;;5122356;28;19919;-70
2023/04/15 08:53:58;;;;;;;;;;;9.60;99.90;;;;;;5124038;28;19961;-70
2023/04/15 08:56:26;;;;;;;;;;;9.60;99.90;;;;;;5119721;28;19919;-70
2023/04/15 08:58:53;;;;;;;;;;;9.70;99.90;;;;;;5123586;28;20122;-70
2023/04/15 09:01:20;;;;;;;;;;;9.70;99.90;;;;;;5124142;28;19926;-70
2023/04/15 09:03:48;;;;;;;;;;;9.70;99.90;;;;;;5124149;28;19920;-70
2023/04/15 09:06:16;;;;;;;;;;;9.80;99.90;;;;;;5122863;28;19920;-72
2023/04/15 09:08:44;;;;;;;;;;;9.90;99.90;;;;;;5124270;28;19930;-71
2023/04/15 09:11:11;;;;;;;;;;;10.00;99.90;;;;;;5116555;28;19927;-71
2023/04/15 09:13:38;;;;;;;;;;;10.00;99.90;;;;;;5123809;28;19919;-70
2023/04/15 09:16:05;;;;;;;;;;;9.90;99.90;;;;;;5122491;28;19923;-70
2023/04/15 09:18:32;;;;;;;;;;;9.90;99.90;;;;;;5123290;28;19926;-70
2023/04/15 09:21:05;;;;;;;;;;;9.90;99.90;;;;;;5123721;28;20002;-70
2023/04/15 09:23:32;;;;;;;;;;;9.90;99.90;;;;;;5123535;28;20209;-70
2023/04/15 09:26:00;;;;;;;;;;;10.00;99.90;;;;;;5121284;28;19924;-72
2023/04/15 09:28:28;;;;;;;;;;;9.90;99.90;;;;;;5122587;28;20262;-69
2023/04/15 09:30:58;;;;;;;;;;;9.90;99.90;;;;;;5123662;28;19994;-70
2023/04/15 09:33:25;;;;;;;;;;;9.80;99.90;;;;;;5123997;28;19941;-70
2023/04/15 09:35:59;;;;;;;;;;;9.80;99.90;;;;;;5123256;28;19987;-72
2023/04/15 09:38:26;;;;;;;;;;;9.70;99.90;;;;;;5102917;28;19987;-70
2023/04/15 09:40:53;;;;;;;;;;;9.70;99.90;;;;;;5103273;28;19927;-70
2023/04/15 09:43:21;;;;;;;;;;;9.80;99.90;;;;;;5120324;28;19919;-70
2023/04/15 09:45:48;;;;;;;;;;;9.90;99.90;;;;;;5122958;28;19926;-70
2023/04/15 09:48:16;;;;;;;;;;;9.90;99.90;;;;;;5123551;28;20204;-70
2023/04/15 09:50:43;;;;;;;;;;;10.00;99.90;;;;;;5123593;28;19919;-70
2023/04/15 09:53:10;;;;;;;;;;;10.00;99.90;;;;;;5123771;28;19930;-70
2023/04/15 09:55:40;;;;;;;;;;;10.10;99.90;;;;;;5123426;28;19961;-70
2023/04/15 09:58:08;;;;;;;;;;;10.10;99.90;;;;;;5123077;28;20078;-70
2023/04/15 10:00:37;;;;;;;;;;;10.20;99.90;;;;;;5126056;28;19979;-70
2023/04/15 10:03:06;;;;;;;;;;;10.20;99.90;;;;;;5126898;28;20251;-70
2023/04/15 10:05:32;;;;;;;;;;;10.20;99.90;;;;;;5126801;28;19920;-70
2023/04/15 10:08:01;;;;;;;;;;;10.20;99.90;;;;;;5126728;28;19986;-70
2023/04/15 10:10:27;;;;;;;;;;;10.20;99.90;;;;;;5127095;28;19919;-70
2023/04/15 10:12:55;;;;;;;;;;;10.20;99.90;;;;;;5127166;28;20166;-70
2023/04/15 10:15:28;;;;;;;;;;;10.10;99.90;;;;;;5124352;28;19927;-71
2023/04/15 10:17:58;;;;;;;;;;;10.10;99.90;;;;;;5126049;28;19926;-71
2023/04/15 10:20:25;;;;;;;;;;;10.00;99.90;;;;;;5112630;28;19920;-68
2023/04/15 10:22:52;;;;;;;;;;;9.90;99.90;;;;;;5126427;28;20278;-70
2023/04/15 10:25:19;;;;;;;;;;;10.00;99.90;;;;;;5126497;28;19919;-70
2023/04/15 10:27:47;;;;;;;;;;;9.80;99.90;;;;;;5125195;28;19920;-70
2023/04/15 10:30:14;;;;;;;;;;;9.80;99.90;;;;;;5126589;28;19958;-71
2023/04/15 10:32:41;;;;;;;;;;;9.70;99.90;;;;;;5126732;28;19920;-70
2023/04/15 10:35:09;;;;;;;;;;;9.60;99.90;;;;;;5126546;28;20151;-71
2023/04/15 10:37:36;;;;;;;;;;;9.50;99.90;;;;;;5125638;28;19935;-70
2023/04/15 10:40:21;;;;;;;;;;;9.40;99.90;;;;;;5126645;28;19920;-70
2023/04/15 10:42:48;;;;;;;;;;;9.30;99.90;;;;;;5126378;28;19993;-70
2023/04/15 10:45:16;;;;;;;;;;;9.30;99.90;;;;;;5126175;28;19942;-70
2023/04/15 10:47:43;;;;;;;;;;;9.30;99.90;;;;;;5125857;28;19920;-71
2023/04/15 10:50:11;;;;;;;;;;;9.30;99.90;;;;;;5126539;28;20153;-70
2023/04/15 10:52:40;;;;;;;;;;;9.20;99.90;;;;;;5126216;28;20156;-70
2023/04/15 10:55:12;;;;;;;;;;;9.20;99.90;;;;;;5126012;28;19926;-70
2023/04/15 10:57:40;;;;;;;;;;;9.10;99.90;;;;;;5124926;28;19927;-69
2023/04/15 11:00:11;;;;;;;;;;;9.10;99.90;;;;;;5125965;28;19991;-70
2023/04/15 11:02:41;;;;;;;;;;;8.90;99.90;;;;;;5125655;28;19961;-70
2023/04/15 11:05:08;;;;;;;;;;;8.80;99.90;;;;;;5125822;28;19919;-71
2023/04/15 11:07:37;;;;;;;;;;;8.80;99.90;;;;;;5125413;28;19987;-71
2023/04/15 11:10:24;;;;;;;;;;;8.70;99.90;;;;;;5125789;28;19973;-71
2023/04/15 11:12:52;;;;;;;;;;;8.70;99.90;;;;;;5125596;28;19920;-71
2023/04/15 11:15:29;;;;;;;;;;;8.70;99.90;;;;;;5125382;28;20092;-69
2023/04/15 11:17:56;;;;;;;;;;;8.60;99.90;;;;;;5125413;28;19923;-69
2023/04/15 11:20:29;;;;;;;;;;;8.60;99.90;;;;;;5123353;28;19926;-70
2023/04/15 11:22:57;;;;;;;;;;;8.50;99.90;;;;;;5126014;28;19920;-71
2023/04/15 11:25:24;;;;;;;;;;;8.50;99.90;;;;;;5125763;28;19926;-72
2023/04/15 11:27:53;;;;;;;;;;;8.50;99.90;;;;;;5125093;28;19954;-72
2023/04/15 11:30:21;;;;;;;;;;;8.50;99.90;;;;;;5125634;28;19920;-71
2023/04/15 11:32:47;;;;;;;;;;;8.50;99.90;;;;;;5125649;28;19926;-72
2023/04/15 11:35:14;;;;;;;;;;;8.30;99.90;;;;;;5125324;28;19927;-71
2023/04/15 11:37:42;;;;;;;;;;;8.30;99.90;;;;;;5124927;28;19966;-71
2023/04/15 11:40:16;;;;;;;;;;;8.30;99.90;;;;;;5126079;28;19920;-71
2023/04/15 11:42:43;;;;;;;;;;;8.20;99.90;;;;;;5124613;28;19927;-71
2023/04/15 11:45:10;;;;;;;;;;;8.20;99.90;;;;;;5123926;28;20060;-71
2023/04/15 11:47:37;;;;;;;;;;;8.30;99.90;;;;;;5122889;28;19919;-71
2023/04/15 11:50:17;;;;;;;;;;;8.20;99.90;;;;;;5125136;28;19942;-71
2023/04/15 11:52:53;;;;;;;;;;;8.30;99.90;;;;;;5118260;28;19954;-70
2023/04/15 11:55:22;;;;;;;;;;;8.30;99.90;;;;;;5123967;28;20207;-70
2023/04/15 11:57:50;;;;;;;;;;;8.30;99.90;;;;;;5121820;28;19920;-70
2023/04/15 12:00:17;;;;;;;;;;;8.30;99.90;;;;;;5112174;28;19920;-70
2023/04/15 12:02:43;;;;;;;;;;;8.30;99.90;;;;;;5113286;28;19920;-71
2023/04/15 12:05:11;;;;;;;;;;;8.30;99.90;;;;;;5124495;28;19947;-72
2023/04/15 12:08:00;;;;;;;;;;;8.30;99.90;;;;;;5124368;28;19926;-73
2023/04/15 12:10:31;;;;;;;;;;;8.30;99.90;;;;;;5106909;28;20009;-72
2023/04/15 12:12:58;;;;;;;;;;;8.20;99.90;;;;;;5105039;28;19920;-72
2023/04/15 12:15:24;;;;;;;;;;;8.20;99.90;;;;;;5103983;28;19980;-70
2023/04/15 12:17:54;;;;;;;;;;;8.20;99.90;;;;;;5116485;28;19954;-72
2023/04/15 12:20:22;;;;;;;;;;;8.10;99.90;;;;;;5124445;28;19919;-71
2023/04/15 12:23:03;;;;;;;;;;;8.20;99.90;;;;;;5120066;28;19919;-71
2023/04/15 12:25:35;;;;;;;;;;;8.20;99.90;;;;;;5123287;28;19926;-72
2023/04/15 12:28:02;;;;;;;;;;;8.10;99.90;;;;;;5120267;28;19994;-72
2023/04/15 12:30:35;;;;;;;;;;;8.00;99.90;;;;;;5116856;28;19942;-71
2023/04/15 12:33:05;;;;;;;;;;;8.00;99.90;;;;;;5121317;28;19927;-71
2023/04/15 12:35:32;;;;;;;;;;;8.10;99.90;;;;;;5120600;28;19955;-70
2023/04/15 12:37:58;;;;;;;;;;;8.00;99.90;;;;;;5116123;28;20233;-70
2023/04/15 12:40:25;;;;;;;;;;;8.00;99.90;;;;;;5112885;28;19920;-70
2023/04/15 12:42:55;;;;;;;;;;;8.00;99.90;;;;;;5118934;28;19943;-70
2023/04/15 12:45:22;;;;;;;;;;;8.00;99.90;;;;;;5123486;28;19919;-70
2023/04/15 12:47:48;;;;;;;;;;;7.90;99.90;;;;;;5124528;28;19926;-70
2023/04/15 12:50:16;;;;;;;;;;;8.00;99.90;;;;;;5120920;28;19920;-69
2023/04/15 12:52:49;;;;;;;;;;;7.90;99.90;;;;;;5122471;28;19984;-73
2023/04/15 12:55:18;;;;;;;;;;;7.90;99.90;;;;;;5124678;28;19924;-72
2023/04/15 12:57:45;;;;;;;;;;;8.00;99.90;;;;;;5123757;28;19920;-70
2023/04/15 13:00:14;;;;;;;;;;;8.00;99.90;;;;;;5123682;28;19920;-70
2023/04/15 13:02:43;;;;;;;;;;;8.00;99.90;;;;;;5122548;28;20141;-69
2023/04/15 13:05:10;;;;;;;;;;;8.10;99.90;;;;;;5123636;28;20227;-69
2023/04/15 13:07:37;;;;;;;;;;;8.00;99.90;;;;;;5118711;28;19926;-71
2023/04/15 13:10:04;;;;;;;;;;;8.10;99.90;;;;;;5124240;28;19920;-72
2023/04/15 13:15:30;;;;;;;;;;;8.00;99.90;;;;;;5124478;28;19927;-73
2023/04/15 13:17:57;;;;;;;;;;;7.90;99.90;;;;;;5117639;28;19942;-71
2023/04/15 13:20:24;;;;;;;;;;;7.90;99.90;;;;;;5124195;28;19920;-71
2023/04/15 13:22:52;;;;;;;;;;;7.90;99.90;;;;;;5122018;28;19919;-70
2023/04/15 13:25:19;;;;;;;;;;;8.00;99.90;;;;;;5120139;28;19976;-70
2023/04/15 13:27:46;;;;;;;;;;;8.00;99.90;;;;;;5121148;28;19982;-71
2023/04/15 13:30:13;;;;;;;;;;;8.00;99.90;;;;;;5123582;28;19920;-71
2023/04/15 13:32:41;;;;;;;;;;;8.00;99.90;;;;;;5124164;28;19982;-71
2023/04/15 13:35:08;;;;;;;;;;;8.00;99.90;;;;;;5112129;28;19955;-70
2023/04/15 13:37:35;;;;;;;;;;;8.00;99.90;;;;;;5125284;28;19982;-71
2023/04/15 13:40:02;;;;;;;;;;;8.10;99.90;;;;;;5128004;28;20346;-70
2023/04/15 13:42:28;;;;;;;;;;;8.10;99.90;;;;;;5127777;28;19926;-71
2023/04/15 13:44:55;;;;;;;;;;;8.10;99.90;;;;;;5117210;28;19955;-71
2023/04/15 13:47:22;;;;;;;;;;;8.10;99.90;;;;;;5124869;28;19955;-71
2023/04/15 13:50:00;;;;;;;;;;;8.20;99.90;;;;;;5127462;28;19920;-71
2023/04/15 13:52:27;;;;;;;;;;;8.20;99.90;;;;;;5126028;28;20372;-71
2023/04/15 13:54:53;;;;;;;;;;;8.10;99.90;;;;;;5127569;28;19919;-71
2023/04/15 13:57:20;;;;;;;;;;;8.10;99.90;;;;;;5127055;28;19919;-71
2023/04/15 13:59:47;;;;;;;;;;;8.00;99.90;;;;;;5127312;28;19955;-73
2023/04/15 14:02:13;;;;;;;;;;;8.00;99.90;;;;;;5127419;28;19958;-71
2023/04/15 14:04:40;;;;;;;;;;;8.00;99.90;;;;;;5127173;28;19919;-71
2023/04/15 14:07:08;;;;;;;;;;;8.00;99.90;;;;;;5126175;28;19919;-71
2023/04/15 14:09:36;;;;;;;;;;;8.00;99.90;;;;;;5124215;28;19935;-71
2023/04/15 14:12:05;;;;;;;;;;;7.90;99.90;;;;;;5118119;28;19955;-71
2023/04/15 14:14:31;;;;;;;;;;;7.90;99.90;;;;;;5126833;28;20278;-71
2023/04/15 14:16:58;;;;;;;;;;;7.90;99.90;;;;;;5125856;28;19927;-71
2023/04/15 14:19:25;;;;;;;;;;;7.90;99.90;;;;;;5121174;28;19955;-71
2023/04/15 14:21:53;;;;;;;;;;;7.80;99.90;;;;;;5126062;28;19979;-71
2023/04/15 14:24:21;;;;;;;;;;;7.90;99.90;;;;;;5126827;28;19926;-71
2023/04/15 14:26:47;;;;;;;;;;;7.90;99.90;;;;;;5126391;28;19943;-71
2023/04/15 14:29:14;;;;;;;;;;;7.80;99.90;;;;;;5126433;28;19977;-72
2023/04/15 14:31:40;;;;;;;;;;;7.80;99.90;;;;;;5126733;28;19920;-71
2023/04/15 14:34:07;;;;;;;;;;;7.80;99.90;;;;;;5126106;28;19928;-71
2023/04/15 14:36:34;;;;;;;;;;;7.80;99.90;;;;;;5125412;28;19926;-71